Bookmark and Share
Track history (hours):
 

Oceanographic research ship Ernest Shackleton (UK/Norway)

Detailed information on ship capabilities available from University of Delaware's Ocean Information Center and ARCUS's ALIAS (Arctic Logistics Information and Support) project.

Last reported at 2014-Apr-25 03:00 UTC. Time now 2014-Apr-25 05:50 UTC.
Position N 45°54' W 008°42'.

Length 80 m; beam 17 m; draft 7.4 m.

Type: Ship. MMSI: 740357000.

Barometer 1017.6 mb
Air temperature 11.2 ° C
Dewpoint 6.1 ° C

NotesDate/timePositionNaut miles runAvg speedWind from/ knotsBaromVisibWave heightAir tempDewpointWater temp
AWS2014-Apr-25 03:00N 45°54' W 008°42'1010.3 1017.6 11.2 6.1
AWS2014-Apr-25 02:00N 45°48' W 008°54'7 7.3 1017.9 11.3 6.4
AWS2014-Apr-25 01:00N 45°42' W 009°00'1514.6 1018.4 11.3 6.2
AWS2014-Apr-25 00:00N 45°30' W 009°12'7 7.3 1018.8 11.5 6.5
AWS2014-Apr-24 23:00N 45°24' W 009°18'7 7.3 1018.9 11.4 6.5
AWS2014-Apr-24 22:00N 45°18' W 009°24'1514.7 1018.9 11.5 5.4
AWS2014-Apr-24 21:00N 45°06' W 009°36'7 7.3 1018.9 11.1 6.6
AWS2014-Apr-24 20:00N 45°00' W 009°42'7 7.4 1018.2 11.2 5.8
AWS2014-Apr-24 19:00N 44°54' W 009°48'1010.4 1017.7 11.5 6.8
AWS2014-Apr-24 18:00N 44°48' W 010°00'7 7.4 1017.4 11.5 6.8
AWS2014-Apr-24 17:00N 44°42' W 010°06'1514.7 1017.4 11.9 5.7
AWS2014-Apr-24 16:00N 44°30' W 010°18'7 7.4 1016.9 11.8 5.9
AWS2014-Apr-24 15:00N 44°24' W 010°24'7 7.4 1016.9 12.4 7.1
AWS2014-Apr-24 14:00N 44°18' W 010°30'1010.5 1016.8 12.9 6.4
AWS2014-Apr-24 13:00N 44°12' W 010°42'1312.8 1016.6 13.2 7.3
AWS2014-Apr-24 12:00N 44°00' W 010°48'7 7.4 1016.3 12.7 6.6
AWS2014-Apr-24 11:00N 43°54' W 010°54'1312.8 1016.2 11.9 5.6
AWS2014-Apr-24 10:00N 43°42' W 011°00'1312.8 1015.9 12.4 6.0
AWS2014-Apr-24 09:00N 43°30' W 011°06'6 6.0 1015.9 12.5 6.7
AWS2014-Apr-24 08:00N 43°24' W 011°06'1312.8 1015.9 12.4 6.9
AWS2014-Apr-24 07:00N 43°12' W 011°12'7 7.4 1015.6 12.0 7.2
AWS2014-Apr-24 06:00N 43°06' W 011°18'1312.8 1014.8 11.8 7.3
AWS2014-Apr-24 05:00N 42°54' W 011°24'6 6.0 1015.0 12.0 8.0
AWS2014-Apr-24 04:00N 42°48' W 011°24'1312.8 1015.4 12.2 9.3
AWS2014-Apr-24 03:00N 42°36' W 011°30'7 7.5 1015.9 11.4 9.5
AWS2014-Apr-24 02:00N 42°30' W 011°36'1312.8 1016.6 12.4 8.9
AWS2014-Apr-24 01:00N 42°18' W 011°42'7 7.5 1017.4 13.3 9.5
AWS2014-Apr-24 00:00N 42°12' W 011°48'1212.0 1018.0 13.5 7.9
AWS2014-Apr-23 23:00N 42°00' W 011°48'1312.8 1019.0 14.2 9.5
AWS2014-Apr-23 22:00N 41°48' W 011°54'7 7.5 1019.8 13.8 9.9
AWS2014-Apr-23 21:00N 41°42' W 012°00'1312.8 1020.1 13.7 9.6
AWS2014-Apr-23 20:00N 41°30' W 012°06'6 6.0 1020.1 13.810.0
AWS2014-Apr-23 19:00N 41°24' W 012°06'1312.8 1020.5 14.4 9.6
AWS2014-Apr-23 18:00N 41°12' W 012°12'8 7.5 1020.9 14.5 9.5
AWS2014-Apr-23 17:00N 41°06' W 012°18'1312.8 1021.0 14.4 9.6
AWS2014-Apr-23 16:00N 40°54' W 012°24'6 6.0 1021.3 15.0 8.8
AWS2014-Apr-23 15:00N 40°48' W 012°24'1312.8 1021.9 14.9 9.4
AWS2014-Apr-23 14:00N 40°36' W 012°30'1312.8 1022.3 13.9 9.1
AWS2014-Apr-23 13:00N 40°24' W 012°36'8 7.5 1022.5 15.9 9.0
AWS2014-Apr-23 12:00N 40°18' W 012°42'1212.0 1022.6 15.0 8.3
AWS2014-Apr-23 11:00N 40°06' W 012°42'8 7.6 1022.7 15.1 8.1
AWS2014-Apr-23 10:00N 40°00' W 012°48'1312.9 1022.3 14.9 7.0
AWS2014-Apr-23 09:00N 39°48' W 012°54'8 7.6 1021.9 15.1 7.8
AWS2014-Apr-23 08:00N 39°42' W 013°00'2412.2 1021.6 14.4 7.7
AWS2014-Apr-23 06:00N 39°18' W 013°06'8 7.6 1020.6 13.7 7.1
AWS2014-Apr-23 05:00N 39°12' W 013°12'1312.9 1020.4 13.9 7.8
AWS2014-Apr-23 04:00N 39°00' W 013°18'6 6.0 1020.1 14.1 8.9
AWS2014-Apr-23 03:00N 38°54' W 013°18'   1019.9 14.2 8.0

Dump ship's entire track history

sailing weather and tide predictions

Ernest Shackleton — ZDLS1 — position and weather